Time;durP1;ratioP1;P1;durP2;ratioP2;P2;SDS_P1;SDS_P2;PMS_P1;PMS_P2;Temp;Humidity;BMP_temperature;BMP_pressure;BME280_temperature;BME280_humidity;BME280_pressure;Samples;Min_cycle;Max_cycle;Signal;HPM_P1;HPM_P2
2022/06/24 00:00:42;;;;;;;3.70;2.30;;;19.70;95.20;;;;;;2092503;28;20032;-90
2022/06/24 00:02:02;;;;;;;3.08;2.35;;;19.70;95.20;;;;;;2089055;28;20025;-88
2022/06/24 00:03:21;;;;;;;4.18;2.60;;;19.70;95.20;;;;;;2074298;28;20034;-88
2022/06/24 00:04:40;;;;;;;4.03;2.53;;;19.60;95.20;;;;;;2069164;28;20089;-89
2022/06/24 00:05:59;;;;;;;4.65;2.70;;;19.60;95.20;;;;;;2076146;28;20042;-90
2022/06/24 00:07:19;;;;;;;4.50;2.35;;;19.60;95.50;;;;;;2067232;28;20041;-90
2022/06/24 00:08:58;;;;;;;3.70;2.35;;;19.60;95.30;;;;;;2080677;28;20037;-90
2022/06/24 00:10:29;;;;;;;4.38;2.70;;;19.60;95.30;;;;;;2097346;28;20033;-92
2022/06/24 00:12:09;;;;;;;3.67;2.50;;;19.60;95.30;;;;;;2096088;28;20029;-90
2022/06/24 00:13:38;;;;;;;5.43;2.72;;;19.60;95.30;;;;;;2090375;28;20419;-92
2022/06/24 00:15:00;;;;;;;4.38;2.70;;;19.50;95.20;;;;;;2080656;28;20033;-89
2022/06/24 00:16:19;;;;;;;3.40;2.38;;;19.50;95.20;;;;;;2078996;28;20061;-89
2022/06/24 00:17:38;;;;;;;5.07;2.58;;;19.60;95.30;;;;;;2076224;28;20037;-89
2022/06/24 00:19:11;;;;;;;4.25;2.67;;;19.60;95.30;;;;;;2078782;28;20033;-89
2022/06/24 00:20:30;;;;;;;4.07;2.60;;;19.60;95.30;;;;;;2091448;28;20395;-89
2022/06/24 00:22:12;;;;;;;4.28;2.47;;;19.60;95.30;;;;;;2089358;28;20139;-89
2022/06/24 00:23:31;;;;;;;4.25;2.70;;;19.60;95.30;;;;;;2089651;28;20073;-89
2022/06/24 00:25:07;;;;;;;4.95;2.83;;;19.50;95.20;;;;;;2089798;28;20037;-89
2022/06/24 00:26:42;;;;;;;4.00;2.92;;;19.60;95.30;;;;;;2091066;28;20462;-89
2022/06/24 00:28:04;;;;;;;5.35;3.22;;;19.60;95.30;;;;;;2090438;28;20033;-90
2022/06/24 00:29:26;;;;;;;4.47;3.08;;;19.50;95.30;;;;;;2094452;28;20099;-90
2022/06/24 00:30:53;;;;;;;6.28;3.28;;;19.50;95.30;;;;;;2079500;28;20082;-88
2022/06/24 00:32:12;;;;;;;4.60;3.10;;;19.50;95.40;;;;;;2093316;28;20016;-91
2022/06/24 00:33:33;;;;;;;4.15;2.67;;;19.50;95.40;;;;;;2089148;28;20068;-88
2022/06/24 00:35:04;;;;;;;6.72;3.40;;;19.60;95.40;;;;;;2090159;28;20037;-89
2022/06/24 00:36:24;;;;;;;4.97;3.33;;;19.50;95.40;;;;;;2091276;28;20025;-91
2022/06/24 00:37:46;;;;;;;5.15;3.30;;;19.50;95.50;;;;;;2090820;28;20503;-90
2022/06/24 00:39:06;;;;;;;6.47;3.55;;;19.50;95.40;;;;;;2090748;28;20069;-89
2022/06/24 00:40:27;;;;;;;4.78;3.30;;;19.50;95.50;;;;;;2086343;28;20057;-89
2022/06/24 00:41:51;;;;;;;4.53;3.28;;;19.50;95.50;;;;;;2090533;28;20037;-89
2022/06/24 00:43:22;;;;;;;4.03;3.05;;;19.50;95.50;;;;;;2091105;28;20449;-89
2022/06/24 00:44:53;;;;;;;4.85;3.10;;;19.50;95.50;;;;;;2091182;28;20053;-89
2022/06/24 00:46:24;;;;;;;5.13;3.13;;;19.60;95.50;;;;;;2091957;28;20079;-88
2022/06/24 00:47:43;;;;;;;4.65;3.45;;;19.60;95.50;;;;;;2091039;28;20479;-89
2022/06/24 00:49:06;;;;;;;4.68;3.30;;;19.60;95.50;;;;;;2084220;28;20406;-88
2022/06/24 00:50:31;;;;;;;4.88;3.10;;;19.60;95.50;;;;;;2090047;28;20032;-88
2022/06/24 00:51:51;;;;;;;6.40;3.60;;;19.60;95.50;;;;;;2091407;28;20561;-88
2022/06/24 00:53:11;;;;;;;4.50;3.50;;;19.70;95.50;;;;;;2078380;28;20029;-88
2022/06/24 00:54:31;;;;;;;4.50;3.47;;;19.60;95.40;;;;;;2078134;28;20104;-88
2022/06/24 00:55:51;;;;;;;4.88;3.42;;;19.70;95.50;;;;;;2079127;28;20068;-88
2022/06/24 00:57:11;;;;;;;4.97;3.47;;;19.70;95.50;;;;;;2084993;28;20120;-88
2022/06/24 00:58:33;;;;;;;4.07;3.30;;;19.70;95.50;;;;;;2086921;28;20502;-89
2022/06/24 00:59:52;;;;;;;5.80;3.35;;;19.80;95.50;;;;;;2080182;28;20037;-88
2022/06/24 01:01:12;;;;;;;6.43;3.60;;;19.80;95.50;;;;;;2083950;28;20091;-88
2022/06/24 01:02:32;;;;;;;4.35;3.05;;;19.80;95.50;;;;;;2076466;28;20041;-88
2022/06/24 01:03:55;;;;;;;5.30;3.55;;;19.80;95.50;;;;;;2084526;28;20652;-88
2022/06/24 01:05:17;;;;;;;5.13;3.20;;;19.90;95.50;;;;;;2093478;28;20047;-89
2022/06/24 01:06:39;;;;;;;6.22;3.72;;;19.90;95.50;;;;;;2081917;28;20045;-92
2022/06/24 01:08:07;;;;;;;5.28;3.90;;;19.90;95.60;;;;;;2085148;28;20033;-89
2022/06/24 01:09:27;;;;;;;5.30;3.67;;;19.90;95.60;;;;;;2087815;28;20037;-88
2022/06/24 01:10:48;;;;;;;5.75;4.18;;;19.90;95.60;;;;;;2092648;28;20288;-89
2022/06/24 01:12:08;;;;;;;5.30;4.25;;;19.90;95.60;;;;;;2094056;28;20029;-88
2022/06/24 01:13:27;;;;;;;6.13;4.00;;;19.90;95.60;;;;;;2079208;28;20029;-89
2022/06/24 01:14:47;;;;;;;4.77;3.87;;;19.90;95.70;;;;;;2081827;28;20085;-89
2022/06/24 01:16:06;;;;;;;5.95;4.20;;;19.90;95.60;;;;;;2078626;28;20034;-89
2022/06/24 01:17:25;;;;;;;6.60;4.20;;;19.90;95.70;;;;;;2082178;28;20131;-89
2022/06/24 01:18:45;;;;;;;5.88;4.10;;;19.90;95.70;;;;;;2102032;28;20084;-86
2022/06/24 01:20:11;;;;;;;5.30;3.92;;;19.90;95.70;;;;;;2101698;28;20025;-87
2022/06/24 01:21:43;;;;;;;5.75;4.10;;;19.90;95.70;;;;;;2102524;28;20080;-88
2022/06/24 01:23:02;;;;;;;6.03;4.10;;;19.90;96.00;;;;;;2094777;28;20032;-87
2022/06/24 01:24:23;;;;;;;6.00;3.90;;;19.90;95.70;;;;;;2094547;28;20499;-88
2022/06/24 01:25:43;;;;;;;5.30;3.72;;;19.90;95.80;;;;;;2090067;28;20033;-88
2022/06/24 01:27:02;;;;;;;5.03;3.70;;;19.90;95.70;;;;;;2086931;28;20041;-87
2022/06/24 01:28:22;;;;;;;4.97;3.70;;;19.90;95.80;;;;;;2073676;28;20025;-88
2022/06/24 01:29:41;;;;;;;5.63;4.00;;;19.90;95.80;;;;;;2089521;28;20036;-88
2022/06/24 01:31:01;;;;;;;6.38;4.35;;;19.90;95.80;;;;;;2090485;28;20111;-87
2022/06/24 01:32:20;;;;;;;4.50;3.45;;;19.90;95.80;;;;;;2094567;28;20495;-87
2022/06/24 01:33:40;;;;;;;7.25;4.55;;;19.90;95.80;;;;;;2096520;28;20491;-87
2022/06/24 01:34:59;;;;;;;5.72;4.40;;;19.90;95.80;;;;;;2086266;28;20033;-88
2022/06/24 01:36:18;;;;;;;5.90;4.38;;;19.90;95.90;;;;;;2086803;28;20028;-87
2022/06/24 01:37:37;;;;;;;6.93;4.47;;;19.90;95.90;;;;;;2086802;28;20029;-87
2022/06/24 01:38:56;;;;;;;7.38;4.50;;;19.90;95.90;;;;;;2078362;28;20041;-87
2022/06/24 01:40:16;;;;;;;5.28;4.03;;;19.90;95.90;;;;;;2087258;28;20107;-87
2022/06/24 01:41:35;;;;;;;6.20;4.45;;;19.90;96.00;;;;;;2089233;28;20037;-88
2022/06/24 01:42:54;;;;;;;5.38;3.83;;;19.90;95.90;;;;;;2090027;28;20454;-87
2022/06/24 01:44:14;;;;;;;6.57;4.72;;;19.80;95.90;;;;;;2083868;28;20034;-88
2022/06/24 01:45:33;;;;;;;5.28;4.10;;;19.80;95.90;;;;;;2072839;28;20050;-89
2022/06/24 01:46:53;;;;;;;6.20;4.55;;;19.80;95.90;;;;;;2080122;28;20049;-87
2022/06/24 01:48:12;;;;;;;5.20;3.90;;;19.70;96.00;;;;;;2083358;28;20033;-87
2022/06/24 01:49:31;;;;;;;5.82;3.60;;;19.70;96.00;;;;;;2076290;28;20447;-87
2022/06/24 01:50:51;;;;;;;5.78;3.85;;;19.70;96.00;;;;;;2086544;28;20032;-88
2022/06/24 01:52:10;;;;;;;4.95;3.28;;;19.70;96.10;;;;;;2084650;28;20037;-88
2022/06/24 01:53:30;;;;;;;4.60;3.25;;;19.70;96.10;;;;;;2079294;28;20033;-87
2022/06/24 01:54:49;;;;;;;4.80;3.20;;;19.60;96.10;;;;;;2088460;28;20430;-87
2022/06/24 01:56:09;;;;;;;4.03;3.05;;;19.60;96.10;;;;;;2082987;28;20029;-88
2022/06/24 01:57:28;;;;;;;5.38;3.13;;;19.60;96.10;;;;;;2083615;28;20491;-90
2022/06/24 01:58:48;;;;;;;4.50;2.97;;;19.60;96.20;;;;;;2087712;28;20032;-88
2022/06/24 02:00:09;;;;;;;4.95;3.10;;;19.50;96.20;;;;;;2085452;28;20414;-88
2022/06/24 02:01:28;;;;;;;6.03;3.40;;;19.60;96.20;;;;;;2090277;28;20120;-88
2022/06/24 02:02:47;;;;;;;5.20;3.35;;;19.60;96.20;;;;;;2088193;28;20108;-89
2022/06/24 02:04:08;;;;;;;5.85;3.45;;;19.60;96.20;;;;;;2086748;28;20033;-88
2022/06/24 02:05:27;;;;;;;4.88;3.60;;;19.60;96.20;;;;;;2080914;28;20505;-88
2022/06/24 02:06:47;;;;;;;5.03;3.20;;;19.60;96.20;;;;;;2073435;28;20140;-88
2022/06/24 02:08:06;;;;;;;5.60;3.88;;;19.60;96.30;;;;;;2075305;28;20073;-89
2022/06/24 02:09:25;;;;;;;5.70;4.00;;;19.60;96.30;;;;;;2090161;28;20032;-88
2022/06/24 02:14:03;;;;;;;5.47;3.92;;;19.50;96.30;;;;;;2090001;28;20029;-89
2022/06/24 02:15:22;;;;;;;5.00;3.58;;;19.60;96.30;;;;;;2089480;28;20024;-89
2022/06/24 02:16:42;;;;;;;5.00;3.42;;;19.50;96.30;;;;;;2075556;28;20415;-89
2022/06/24 02:18:01;;;;;;;4.32;3.38;;;19.50;96.30;;;;;;2075492;28;20033;-88
2022/06/24 02:19:21;;;;;;;4.60;3.45;;;19.60;96.30;;;;;;2077974;28;20068;-87
2022/06/24 02:20:40;;;;;;;5.80;3.13;;;19.60;96.30;;;;;;2083562;28;20041;-88
2022/06/24 02:21:59;;;;;;;4.13;3.05;;;19.50;96.30;;;;;;2081800;28;20041;-88
2022/06/24 02:23:19;;;;;;;4.20;2.95;;;19.50;96.30;;;;;;2075899;28;20029;-89
2022/06/24 02:24:39;;;;;;;4.68;2.80;;;19.50;96.30;;;;;;2083949;28;20495;-90
2022/06/24 02:25:58;;;;;;;5.55;3.13;;;19.60;96.30;;;;;;2073364;28;20058;-89
2022/06/24 02:27:17;;;;;;;4.68;3.33;;;19.60;96.30;;;;;;2083973;28;20469;-90
2022/06/24 02:28:37;;;;;;;4.25;3.10;;;19.50;96.30;;;;;;2081886;28;20503;-91
2022/06/24 02:29:56;;;;;;;4.78;3.33;;;19.50;96.30;;;;;;2079712;28;20040;-89
2022/06/24 02:31:16;;;;;;;6.22;3.17;;;19.50;96.30;;;;;;2067326;28;20045;-91
2022/06/24 02:32:35;;;;;;;4.90;3.30;;;19.40;96.30;;;;;;2085787;28;20546;-90
2022/06/24 02:33:54;;;;;;;6.15;3.40;;;19.40;96.30;;;;;;2090100;28;20036;-91
2022/06/24 02:35:14;;;;;;;3.58;2.67;;;19.40;96.40;;;;;;2075482;28;20041;-91
2022/06/24 02:36:34;;;;;;;3.80;2.90;;;19.30;96.50;;;;;;2078743;28;20029;-91
2022/06/24 02:37:53;;;;;;;5.22;2.95;;;19.30;96.50;;;;;;2085101;28;20037;-92
2022/06/24 02:39:12;;;;;;;3.20;2.53;;;19.20;96.60;;;;;;2078824;28;20025;-91
2022/06/24 02:40:47;;;;;;;3.70;2.55;;;19.30;96.60;;;;;;2086829;28;20585;-91
2022/06/24 02:42:06;;;;;;;3.35;2.47;;;19.30;96.60;;;;;;2079141;28;20550;-91
2022/06/24 02:43:34;;;;;;;3.83;2.25;;;19.30;96.60;;;;;;2088136;28;20021;-91
2022/06/24 02:44:54;;;;;;;2.67;2.10;;;19.30;96.60;;;;;;2090015;28;20029;-90
2022/06/24 02:46:16;;;;;;;2.40;1.90;;;19.30;96.60;;;;;;2076687;28;20037;-89
2022/06/24 02:47:35;;;;;;;2.67;1.90;;;19.30;96.60;;;;;;2084361;28;20427;-90
2022/06/24 02:48:54;;;;;;;3.80;2.40;;;19.30;96.70;;;;;;2075269;28;20041;-91
2022/06/24 02:50:14;;;;;;;3.08;2.00;;;19.20;96.70;;;;;;2067632;28;20415;-90
2022/06/24 02:51:33;;;;;;;3.05;2.10;;;19.20;96.70;;;;;;2101202;28;20036;-91
2022/06/24 02:52:52;;;;;;;3.10;2.20;;;19.30;96.80;;;;;;2077984;28;20137;-91
2022/06/24 02:54:11;;;;;;;3.15;2.00;;;19.30;96.70;;;;;;2080321;28;20084;-90
2022/06/24 02:55:31;;;;;;;2.70;1.73;;;19.20;96.70;;;;;;2082830;28;20108;-90
2022/06/24 02:56:50;;;;;;;3.17;1.90;;;19.20;96.70;;;;;;2081858;28;20037;-91
2022/06/24 02:58:10;;;;;;;2.45;1.60;;;19.20;96.70;;;;;;2075167;28;20435;-89
2022/06/24 02:59:29;;;;;;;3.50;1.60;;;19.20;96.70;;;;;;2088837;28;20040;-91
2022/06/24 03:00:49;;;;;;;2.10;1.38;;;19.10;96.70;;;;;;2081523;28;20065;-91
2022/06/24 03:02:08;;;;;;;3.10;1.30;;;19.10;96.70;;;;;;2076041;28;20034;-91
2022/06/24 03:03:28;;;;;;;2.60;1.10;;;19.00;96.70;;;;;;2079033;28;20037;-91
2022/06/24 03:04:47;;;;;;;1.40;1.10;;;19.00;96.70;;;;;;2092196;28;20119;-91
2022/06/24 03:06:07;;;;;;;2.30;0.98;;;18.90;96.70;;;;;;2083545;28;20112;-90
2022/06/24 03:07:27;;;;;;;2.15;1.00;;;18.90;96.70;;;;;;2091904;28;20036;-89
2022/06/24 03:08:46;;;;;;;2.10;0.80;;;18.80;96.80;;;;;;2086314;28;20095;-90
2022/06/24 03:10:05;;;;;;;1.75;0.93;;;18.70;96.80;;;;;;2086618;28;20503;-90
2022/06/24 03:11:25;;;;;;;2.10;0.95;;;18.60;96.80;;;;;;2090075;28;20053;-90
2022/06/24 03:12:44;;;;;;;1.40;1.00;;;18.60;96.80;;;;;;2083692;28;20033;-91
2022/06/24 03:14:03;;;;;;;1.75;0.90;;;18.60;96.90;;;;;;2084937;28;20033;-89
2022/06/24 03:15:23;;;;;;;1.40;0.90;;;18.60;96.90;;;;;;2084712;28;20033;-90
2022/06/24 03:16:42;;;;;;;1.20;1.00;;;18.50;96.90;;;;;;2078308;28;20033;-89
2022/06/24 03:18:02;;;;;;;2.33;1.05;;;18.60;96.90;;;;;;2075147;28;20030;-90
2022/06/24 03:19:21;;;;;;;1.50;0.90;;;18.50;96.90;;;;;;2082131;28;20483;-88
2022/06/24 03:20:40;;;;;;;1.27;0.80;;;18.50;96.90;;;;;;2073185;28;20404;-89
2022/06/24 03:22:00;;;;;;;1.27;0.90;;;18.50;97.00;;;;;;2080151;28;20033;-88
2022/06/24 03:23:19;;;;;;;1.95;0.80;;;18.50;97.00;;;;;;2087283;28;20044;-89
2022/06/24 03:24:38;;;;;;;1.27;0.88;;;18.50;97.00;;;;;;2088999;28;20030;-89
2022/06/24 03:25:57;;;;;;;1.30;0.90;;;18.50;97.00;;;;;;2089745;28;20036;-89
2022/06/24 03:27:16;;;;;;;2.63;1.00;;;18.50;96.90;;;;;;2078218;28;20037;-89
2022/06/24 03:28:35;;;;;;;0.90;0.75;;;18.50;96.90;;;;;;2085408;28;20407;-88
2022/06/24 03:29:55;;;;;;;1.85;1.08;;;18.40;96.90;;;;;;2094159;28;20068;-88
2022/06/24 03:31:14;;;;;;;1.92;1.00;;;18.40;96.90;;;;;;2079863;28;20399;-88
2022/06/24 03:32:34;;;;;;;1.15;0.80;;;18.40;97.00;;;;;;2080054;28;20033;-87
2022/06/24 03:33:55;;;;;;;2.00;1.00;;;18.40;97.00;;;;;;2086449;28;20335;-88
2022/06/24 03:35:14;;;;;;;2.40;0.90;;;18.40;97.00;;;;;;2086162;28;20033;-88
2022/06/24 03:36:34;;;;;;;1.13;0.80;;;18.40;97.00;;;;;;2078361;28;20068;-88
2022/06/24 03:37:53;;;;;;;1.30;1.00;;;18.40;97.10;;;;;;2074974;28;20049;-88
2022/06/24 03:39:13;;;;;;;1.83;1.13;;;18.40;97.30;;;;;;2075121;28;20123;-89
2022/06/24 03:40:32;;;;;;;2.30;1.15;;;18.40;97.00;;;;;;2075342;28;20041;-89
2022/06/24 03:41:51;;;;;;;1.27;0.98;;;18.50;97.30;;;;;;2071874;28;20022;-88
2022/06/24 03:43:10;;;;;;;1.52;1.02;;;18.40;97.00;;;;;;2087626;28;20037;-89
2022/06/24 03:44:30;;;;;;;2.33;1.17;;;18.40;97.00;;;;;;2090832;28;20053;-89
2022/06/24 03:45:49;;;;;;;1.75;1.25;;;18.40;97.00;;;;;;2089611;28;20079;-89
2022/06/24 03:47:08;;;;;;;1.60;1.23;;;18.50;97.00;;;;;;2093572;28;20498;-89
2022/06/24 03:48:28;;;;;;;2.08;1.27;;;18.40;97.00;;;;;;2094714;28;20120;-89
2022/06/24 03:49:50;;;;;;;1.95;1.27;;;18.40;97.00;;;;;;2093705;28;20057;-88
2022/06/24 03:51:10;;;;;;;1.65;1.13;;;18.40;97.00;;;;;;2089697;28;20026;-89
2022/06/24 03:52:29;;;;;;;1.98;1.00;;;18.40;97.00;;;;;;2075119;28;20033;-89
2022/06/24 03:53:48;;;;;;;2.15;1.20;;;18.30;97.00;;;;;;2088217;28;20095;-89
2022/06/24 03:55:08;;;;;;;2.38;1.27;;;18.30;97.10;;;;;;2083357;28;20569;-88
2022/06/24 03:56:28;;;;;;;2.42;1.00;;;18.30;97.10;;;;;;2078304;28;20116;-89
2022/06/24 03:57:47;;;;;;;2.07;1.10;;;18.30;97.10;;;;;;2082752;28;20033;-89
2022/06/24 03:59:06;;;;;;;1.70;1.10;;;18.30;97.10;;;;;;2091416;28;20287;-88
2022/06/24 04:00:26;;;;;;;2.25;1.20;;;18.30;97.10;;;;;;2091368;28;20036;-89
2022/06/24 04:01:45;;;;;;;1.73;1.20;;;18.30;97.10;;;;;;2079102;28;20069;-89
2022/06/24 04:03:04;;;;;;;2.28;1.00;;;18.30;97.30;;;;;;2079364;28;20026;-89
2022/06/24 04:04:24;;;;;;;2.13;1.30;;;18.30;97.10;;;;;;2083176;28;20041;-89
2022/06/24 04:05:43;;;;;;;2.05;1.02;;;18.30;97.10;;;;;;2081411;28;20029;-89
2022/06/24 04:07:03;;;;;;;2.03;1.20;;;18.30;97.10;;;;;;2091857;28;20032;-90
2022/06/24 04:08:22;;;;;;;2.03;1.10;;;18.30;97.10;;;;;;2077329;28;20424;-89
2022/06/24 04:09:41;;;;;;;2.13;1.10;;;18.30;97.30;;;;;;2091875;28;20036;-89
2022/06/24 04:11:11;;;;;;;2.05;1.02;;;18.30;97.00;;;;;;2088650;28;20029;-89
2022/06/24 04:12:30;;;;;;;1.98;1.08;;;18.30;97.00;;;;;;2087855;28;20029;-89
2022/06/24 04:13:49;;;;;;;2.67;1.23;;;18.30;97.30;;;;;;2079389;28;20038;-89
2022/06/24 04:15:17;;;;;;;2.63;1.20;;;18.30;97.00;;;;;;2082006;28;20531;-89
2022/06/24 04:16:36;;;;;;;1.63;0.88;;;18.30;97.00;;;;;;2094795;28;20037;-89
2022/06/24 04:17:56;;;;;;;1.95;1.10;;;18.30;97.00;;;;;;2084778;28;20676;-88
2022/06/24 04:19:15;;;;;;;1.30;1.00;;;18.30;97.00;;;;;;2084383;28;20081;-86
2022/06/24 04:20:34;;;;;;;2.15;1.17;;;18.30;97.00;;;;;;2094504;28;20036;-89
2022/06/24 04:21:54;;;;;;;2.03;1.05;;;18.30;97.10;;;;;;2092533;28;20072;-89
2022/06/24 04:23:13;;;;;;;2.15;1.10;;;18.20;97.00;;;;;;2091317;28;20041;-88
2022/06/24 04:24:32;;;;;;;2.53;1.20;;;18.20;97.10;;;;;;2082767;28;20041;-89
2022/06/24 04:25:51;;;;;;;1.85;1.05;;;18.20;97.10;;;;;;2080892;28;20394;-89
2022/06/24 04:27:11;;;;;;;1.60;1.10;;;18.20;97.10;;;;;;2086720;28;20120;-86
2022/06/24 04:28:30;;;;;;;1.90;1.20;;;18.30;97.10;;;;;;2079407;28;20029;-89
2022/06/24 04:29:50;;;;;;;2.55;1.30;;;18.20;97.00;;;;;;2079609;28;20038;-89
2022/06/24 04:31:09;;;;;;;1.83;1.10;;;18.20;97.10;;;;;;2080260;28;20061;-89
2022/06/24 04:32:28;;;;;;;1.75;1.00;;;18.20;97.10;;;;;;2082049;28;20415;-89
2022/06/24 04:33:47;;;;;;;1.98;1.20;;;18.20;97.10;;;;;;2084603;28;20041;-89
2022/06/24 04:35:08;;;;;;;1.33;0.93;;;18.20;97.20;;;;;;2090182;28;20041;-88
2022/06/24 04:36:27;;;;;;;1.95;1.00;;;18.20;97.20;;;;;;2079977;28;20084;-88
2022/06/24 04:37:46;;;;;;;1.60;1.20;;;18.20;97.10;;;;;;2079551;28;20029;-89
2022/06/24 04:39:05;;;;;;;1.40;0.73;;;18.20;97.10;;;;;;2079050;28;20037;-89
2022/06/24 04:40:25;;;;;;;1.90;0.98;;;18.20;97.10;;;;;;2090993;28;20028;-90
2022/06/24 04:41:45;;;;;;;1.75;0.80;;;18.20;97.10;;;;;;2084380;28;20037;-89
2022/06/24 04:43:04;;;;;;;1.67;1.08;;;18.20;97.10;;;;;;2088728;28;20491;-89
2022/06/24 04:44:24;;;;;;;2.28;1.10;;;18.20;97.10;;;;;;2088446;28;20498;-88
2022/06/24 04:45:46;;;;;;;2.00;1.08;;;18.20;97.40;;;;;;2079894;28;20122;-89
2022/06/24 04:47:05;;;;;;;2.10;1.10;;;18.20;97.10;;;;;;2090336;28;20036;-89
2022/06/24 04:48:24;;;;;;;1.80;1.02;;;18.20;97.10;;;;;;2086649;28;20021;-89
2022/06/24 04:49:44;;;;;;;1.65;1.00;;;18.20;97.10;;;;;;2084058;28;20036;-90
2022/06/24 04:51:04;;;;;;;1.83;1.10;;;18.20;97.10;;;;;;2076452;28;20487;-89
2022/06/24 04:52:24;;;;;;;1.75;1.08;;;18.20;97.10;;;;;;2085350;28;20033;-89
2022/06/24 04:53:43;;;;;;;1.67;1.10;;;18.20;97.00;;;;;;2082129;28;20495;-90
2022/06/24 04:55:04;;;;;;;2.53;1.10;;;18.20;97.10;;;;;;2079039;28;20026;-90
2022/06/24 04:56:23;;;;;;;2.03;1.10;;;18.20;97.10;;;;;;2089923;28;20522;-89
2022/06/24 04:57:43;;;;;;;1.73;1.13;;;18.20;97.00;;;;;;2091116;28;20461;-92
2022/06/24 04:59:02;;;;;;;2.50;1.33;;;18.20;97.10;;;;;;2075208;28;20038;-91
2022/06/24 05:00:22;;;;;;;1.63;1.17;;;18.30;97.10;;;;;;2074312;28;20041;-93
2022/06/24 05:01:42;;;;;;;2.92;1.00;;;18.30;97.10;;;;;;2079362;28;20038;-92
2022/06/24 05:03:01;;;;;;;1.92;1.23;;;18.30;97.10;;;;;;2073091;28;20030;-92
2022/06/24 05:04:20;;;;;;;1.50;1.10;;;18.30;97.10;;;;;;2080396;28;20506;-92
2022/06/24 05:05:39;;;;;;;2.15;1.20;;;18.30;97.10;;;;;;2077972;28;20021;-92
2022/06/24 05:06:58;;;;;;;1.73;1.17;;;18.30;97.10;;;;;;2083728;28;20037;-91
2022/06/24 05:08:17;;;;;;;2.58;1.30;;;18.30;97.40;;;;;;2083954;28;20075;-92
2022/06/24 05:09:37;;;;;;;2.28;1.20;;;18.30;97.10;;;;;;2090762;28;20044;-90
2022/06/24 05:10:56;;;;;;;2.03;1.10;;;18.30;97.10;;;;;;2093722;28;20426;-91
2022/06/24 05:12:16;;;;;;;2.50;1.00;;;18.30;97.20;;;;;;2090216;28;20045;-92
2022/06/24 05:13:35;;;;;;;2.72;0.95;;;18.20;97.20;;;;;;2078776;28;20037;-91
2022/06/24 05:14:55;;;;;;;2.35;1.27;;;18.30;97.20;;;;;;2072238;28;20034;-91
2022/06/24 05:16:15;;;;;;;2.55;1.20;;;18.30;97.20;;;;;;2075975;28;20472;-91
2022/06/24 05:17:34;;;;;;;2.00;1.20;;;18.30;97.10;;;;;;2084132;28;20029;-91
2022/06/24 05:18:53;;;;;;;2.28;1.23;;;18.30;97.10;;;;;;2070497;28;20038;-91
2022/06/24 05:20:13;;;;;;;2.95;1.35;;;18.30;97.20;;;;;;2078706;28;20400;-91
2022/06/24 05:21:32;;;;;;;1.83;1.08;;;18.30;97.20;;;;;;2087475;28;20040;-91
2022/06/24 05:22:51;;;;;;;1.70;1.33;;;18.30;97.20;;;;;;2082336;28;20029;-91
2022/06/24 05:24:10;;;;;;;3.03;1.30;;;18.30;97.20;;;;;;2087720;28;20120;-91
2022/06/24 05:25:29;;;;;;;2.25;1.30;;;18.30;97.20;;;;;;2091455;28;20021;-90
2022/06/24 05:26:49;;;;;;;2.70;1.42;;;18.30;97.20;;;;;;2082446;28;20041;-85
2022/06/24 05:28:08;;;;;;;2.30;1.20;;;18.30;97.20;;;;;;2088079;28;20036;-92
2022/06/24 05:29:27;;;;;;;1.85;1.20;;;18.30;97.20;;;;;;2094653;28;20037;-92
2022/06/24 05:30:46;;;;;;;1.73;0.95;;;18.30;97.20;;;;;;2087554;28;20101;-92
2022/06/24 05:32:06;;;;;;;2.72;1.10;;;18.40;97.20;;;;;;2093816;28;20029;-92
2022/06/24 05:33:26;;;;;;;3.45;1.20;;;18.40;97.20;;;;;;2097039;28;20389;-89
2022/06/24 05:34:45;;;;;;;2.50;1.30;;;18.40;97.20;;;;;;2089937;28;20551;-88
2022/06/24 05:36:04;;;;;;;2.20;1.33;;;18.40;97.20;;;;;;2093736;28;20095;-88
2022/06/24 05:37:23;;;;;;;2.33;1.13;;;18.40;97.20;;;;;;2085986;28;20032;-88
2022/06/24 05:38:44;;;;;;;2.00;1.33;;;18.40;97.20;;;;;;2093083;28;20033;-88
2022/06/24 05:40:03;;;;;;;2.35;1.40;;;18.40;97.10;;;;;;2090407;28;20041;-88
2022/06/24 05:41:23;;;;;;;2.33;1.20;;;18.40;97.10;;;;;;2089861;28;20499;-88
2022/06/24 05:42:42;;;;;;;3.58;1.13;;;18.40;97.10;;;;;;2087139;28;20064;-88
2022/06/24 05:44:01;;;;;;;1.80;1.20;;;18.40;97.10;;;;;;2078225;28;20029;-88
2022/06/24 05:45:21;;;;;;;3.65;1.20;;;18.50;97.10;;;;;;2079972;28;20049;-88
2022/06/24 05:46:40;;;;;;;1.60;1.20;;;18.40;97.10;;;;;;2079946;28;20527;-88
2022/06/24 05:47:59;;;;;;;2.45;1.33;;;18.50;97.10;;;;;;2087364;28;20029;-88
2022/06/24 05:49:18;;;;;;;2.55;1.20;;;18.50;97.40;;;;;;2093095;28;20037;-88
2022/06/24 05:50:38;;;;;;;2.95;1.30;;;18.50;97.10;;;;;;2087288;28;20037;-89
2022/06/24 05:51:57;;;;;;;2.47;1.30;;;18.50;97.10;;;;;;2089881;28;20028;-88
2022/06/24 05:55:04;;;;;;;2.42;1.10;;;18.50;97.10;;;;;;2087833;28;20033;-88
2022/06/24 05:56:24;;;;;;;2.65;1.33;;;18.50;97.10;;;;;;2083105;28;20057;-88
2022/06/24 05:57:43;;;;;;;3.10;1.63;;;18.50;97.10;;;;;;2086521;28;20069;-87
2022/06/24 05:59:03;;;;;;;3.70;1.40;;;18.50;97.10;;;;;;2086853;28;20037;-88
2022/06/24 06:00:22;;;;;;;2.88;1.33;;;18.50;97.10;;;;;;2088198;28;20033;-88
2022/06/24 06:01:41;;;;;;;2.47;1.42;;;18.60;97.10;;;;;;2086300;28;20033;-88
2022/06/24 06:03:01;;;;;;;2.88;1.50;;;18.60;97.10;;;;;;2083770;28;20041;-89
2022/06/24 06:04:20;;;;;;;2.95;1.40;;;18.60;97.10;;;;;;2088334;28;20119;-88
2022/06/24 06:05:39;;;;;;;3.30;1.38;;;18.60;97.10;;;;;;2090742;28;20032;-88
2022/06/24 06:06:59;;;;;;;2.05;1.40;;;18.60;97.10;;;;;;2085775;28;20049;-88
2022/06/24 06:08:19;;;;;;;2.47;1.35;;;18.60;97.10;;;;;;2089553;28;20040;-87
2022/06/24 06:09:38;;;;;;;2.38;1.40;;;18.60;97.30;;;;;;2092779;28;20033;-88
2022/06/24 06:10:58;;;;;;;2.90;1.50;;;18.60;97.00;;;;;;2078960;28;20516;-88
2022/06/24 06:12:17;;;;;;;3.78;1.77;;;18.60;97.00;;;;;;2080344;28;20045;-88
2022/06/24 06:13:36;;;;;;;2.42;1.42;;;18.60;97.00;;;;;;2087456;28;20037;-88
2022/06/24 06:14:55;;;;;;;2.30;1.42;;;18.70;97.00;;;;;;2075147;28;20556;-88
2022/06/24 06:16:15;;;;;;;4.35;1.73;;;18.70;97.00;;;;;;2088468;28;20036;-88
2022/06/24 06:17:35;;;;;;;2.35;1.30;;;18.60;97.00;;;;;;2094885;28;20024;-88
2022/06/24 06:18:54;;;;;;;3.50;1.45;;;18.60;97.00;;;;;;2086345;28;20420;-88
2022/06/24 06:20:13;;;;;;;3.38;1.40;;;18.60;97.10;;;;;;2083451;28;20036;-88
2022/06/24 06:21:33;;;;;;;3.83;1.73;;;18.60;97.10;;;;;;2090774;28;20041;-88
2022/06/24 06:22:52;;;;;;;3.30;1.60;;;18.60;97.10;;;;;;2089745;28;20463;-88
2022/06/24 06:24:11;;;;;;;2.97;1.52;;;18.60;97.10;;;;;;2083677;28;20028;-88
2022/06/24 06:25:31;;;;;;;2.53;1.50;;;18.60;97.10;;;;;;2090420;28;20037;-88
2022/06/24 06:26:51;;;;;;;2.05;1.40;;;18.60;97.10;;;;;;2091991;28;20529;-88
2022/06/24 06:28:10;;;;;;;2.97;1.50;;;18.60;97.10;;;;;;2092152;28;20021;-88
2022/06/24 06:29:29;;;;;;;2.65;1.40;;;18.60;97.10;;;;;;2078862;28;20566;-88
2022/06/24 06:30:49;;;;;;;1.88;1.27;;;18.60;97.10;;;;;;2092502;28;20041;-88
2022/06/24 06:32:08;;;;;;;3.47;1.58;;;18.60;97.10;;;;;;2089095;28;20036;-88
2022/06/24 06:33:27;;;;;;;3.00;1.50;;;18.60;97.10;;;;;;2087909;28;20489;-87
2022/06/24 06:34:47;;;;;;;2.80;1.63;;;18.70;97.20;;;;;;2085099;28;20041;-88
2022/06/24 06:36:11;;;;;;;2.80;1.77;;;18.60;97.10;;;;;;2094421;28;20490;-88
2022/06/24 06:37:30;;;;;;;2.38;1.50;;;18.70;97.20;;;;;;2098717;28;20103;-88
2022/06/24 06:38:49;;;;;;;3.65;1.70;;;18.70;97.10;;;;;;2098482;28;20028;-88
2022/06/24 06:40:09;;;;;;;3.15;1.55;;;18.70;97.10;;;;;;2089389;28;20033;-88
2022/06/24 06:41:28;;;;;;;1.77;1.30;;;18.70;97.10;;;;;;2090420;28;20029;-88
2022/06/24 06:42:52;;;;;;;2.83;1.80;;;18.70;97.20;;;;;;2096395;28;20036;-88
2022/06/24 06:44:11;;;;;;;2.15;1.38;;;18.70;97.20;;;;;;2094702;28;20028;-88
2022/06/24 06:45:31;;;;;;;3.35;1.77;;;18.70;97.10;;;;;;2084364;28;20045;-88
2022/06/24 06:46:50;;;;;;;2.72;1.50;;;18.70;97.20;;;;;;2090744;28;20036;-87
2022/06/24 06:48:09;;;;;;;3.75;1.77;;;18.70;97.20;;;;;;2078240;28;20025;-88
2022/06/24 06:49:28;;;;;;;4.03;1.85;;;18.70;97.10;;;;;;2086008;28;20040;-88
2022/06/24 06:50:56;;;;;;;1.98;1.50;;;18.70;97.10;;;;;;2089375;28;20037;-88
2022/06/24 06:52:15;;;;;;;4.28;2.00;;;18.70;97.10;;;;;;2087492;28;20025;-87
2022/06/24 06:53:34;;;;;;;2.22;1.80;;;18.70;97.10;;;;;;2091423;28;20420;-88
2022/06/24 06:54:53;;;;;;;4.07;1.80;;;18.80;97.10;;;;;;2091171;28;20032;-88
2022/06/24 06:56:13;;;;;;;3.20;1.60;;;18.80;97.10;;;;;;2089603;28;20506;-88
2022/06/24 06:57:32;;;;;;;2.22;1.52;;;18.80;97.10;;;;;;2075118;28;20034;-89
2022/06/24 06:58:51;;;;;;;2.55;1.83;;;18.80;97.40;;;;;;2075018;28;20045;-89
2022/06/24 07:00:11;;;;;;;4.28;1.70;;;18.80;97.10;;;;;;2087489;28;20032;-89
2022/06/24 07:01:30;;;;;;;4.20;1.80;;;18.80;97.10;;;;;;2091244;28;20021;-89
2022/06/24 07:02:50;;;;;;;2.60;1.65;;;18.80;97.10;;;;;;2087969;28;20037;-88
2022/06/24 07:04:09;;;;;;;2.00;1.40;;;18.80;97.00;;;;;;2078334;28;20060;-87